createdAt,value
2023-04-20T00:01:54.692Z,4.57
2023-04-20T00:04:21.209Z,4.45
2023-04-20T00:06:47.480Z,4.80
2023-04-20T00:09:14.583Z,4.13
2023-04-20T00:11:40.960Z,4.50
2023-04-20T00:14:07.235Z,4.50
2023-04-20T00:16:33.497Z,4.53
2023-04-20T00:19:00.175Z,4.55
2023-04-20T00:21:27.039Z,4.78
2023-04-20T00:23:53.376Z,4.93
2023-04-20T00:26:21.128Z,4.45
2023-04-20T00:28:47.329Z,4.85
2023-04-20T00:31:13.600Z,4.88
2023-04-20T00:33:39.831Z,4.30
2023-04-20T00:36:06.239Z,4.78
2023-04-20T00:38:32.442Z,4.22
2023-04-20T00:40:58.709Z,4.72
2023-04-20T00:43:24.973Z,4.80
2023-04-20T00:45:53.950Z,4.28
2023-04-20T00:48:20.608Z,4.65
2023-04-20T00:50:46.849Z,4.47
2023-04-20T00:53:13.562Z,4.55
2023-04-20T00:55:41.312Z,4.35
2023-04-20T00:58:07.517Z,4.65
2023-04-20T01:00:34.112Z,4.70
2023-04-20T01:03:00.451Z,4.38
2023-04-20T01:05:26.871Z,4.55
2023-04-20T01:07:53.109Z,4.25
2023-04-20T01:10:19.357Z,4.47
2023-04-20T01:12:45.637Z,4.70
2023-04-20T01:15:12.082Z,4.22
2023-04-20T01:17:39.483Z,4.57
2023-04-20T01:20:08.840Z,4.18
2023-04-20T01:22:47.910Z,4.47
2023-04-20T01:25:14.605Z,4.75
2023-04-20T01:27:40.892Z,5.10
2023-04-20T01:30:07.666Z,5.20
2023-04-20T01:32:34.527Z,4.85
2023-04-20T01:35:01.159Z,5.07
2023-04-20T01:37:27.547Z,5.25
2023-04-20T01:39:53.820Z,5.22
2023-04-20T01:42:20.374Z,5.10
2023-04-20T01:44:46.586Z,4.95
2023-04-20T01:47:12.844Z,4.75
2023-04-20T01:49:39.105Z,5.40
2023-04-20T01:52:05.450Z,5.30
2023-04-20T01:54:31.723Z,5.20
2023-04-20T01:56:58.304Z,5.30
2023-04-20T01:59:24.495Z,5.22
2023-04-20T02:01:50.759Z,5.38
2023-04-20T02:04:17.030Z,5.43
2023-04-20T02:06:43.295Z,5.07
2023-04-20T02:09:09.732Z,5.03
2023-04-20T02:11:35.990Z,5.18
2023-04-20T02:14:02.181Z,5.40
2023-04-20T02:16:31.471Z,5.28
2023-04-20T02:18:57.886Z,4.97
2023-04-20T02:21:24.199Z,4.85
2023-04-20T02:23:50.392Z,5.35
2023-04-20T02:26:16.986Z,5.47
2023-04-20T02:28:43.244Z,5.22
2023-04-20T02:31:09.479Z,5.00
2023-04-20T02:33:35.919Z,5.28
2023-04-20T02:36:02.129Z,5.38
2023-04-20T02:38:28.410Z,4.97
2023-04-20T02:40:54.636Z,4.57
2023-04-20T02:43:20.999Z,4.63
2023-04-20T02:45:47.232Z,5.40
2023-04-20T02:48:13.502Z,4.45
2023-04-20T02:50:41.401Z,4.80
2023-04-20T02:53:07.638Z,4.57
2023-04-20T02:55:33.859Z,4.78
2023-04-20T02:58:00.124Z,4.55
2023-04-20T03:00:26.611Z,4.45
2023-04-20T03:02:53.008Z,4.45
2023-04-20T03:05:19.357Z,4.70
2023-04-20T03:07:45.701Z,4.60
2023-04-20T03:10:12.154Z,4.22
2023-04-20T03:12:38.665Z,4.40
2023-04-20T03:15:06.257Z,4.65
2023-04-20T03:17:32.586Z,4.70
2023-04-20T03:19:58.841Z,4.53
2023-04-20T03:22:25.039Z,4.10
2023-04-20T03:24:53.499Z,4.20
2023-04-20T03:27:20.017Z,4.55
2023-04-20T03:29:48.688Z,4.03
2023-04-20T03:32:14.926Z,4.35
2023-04-20T03:34:41.442Z,4.28
2023-04-20T03:37:07.649Z,4.63
2023-04-20T03:39:33.829Z,4.80
2023-04-20T03:42:00.094Z,4.55
2023-04-20T03:44:26.397Z,4.65
2023-04-20T03:46:52.624Z,4.28
2023-04-20T03:49:23.154Z,4.18
2023-04-20T03:51:49.374Z,4.57
2023-04-20T03:54:15.641Z,4.55
2023-04-20T03:56:41.855Z,4.80
2023-04-20T03:59:08.049Z,4.13
2023-04-20T04:01:36.689Z,4.40
2023-04-20T04:04:03.072Z,4.20
2023-04-20T04:06:29.459Z,4.43
2023-04-20T04:08:55.695Z,4.72
2023-04-20T04:11:21.998Z,4.40
2023-04-20T04:13:48.190Z,4.30
2023-04-20T04:16:14.426Z,4.40
2023-04-20T04:18:43.149Z,4.28
2023-04-20T04:21:10.307Z,4.60
2023-04-20T04:23:37.562Z,4.25
2023-04-20T04:26:04.878Z,4.70
2023-04-20T04:28:31.437Z,4.57
2023-04-20T04:30:57.689Z,4.10
2023-04-20T04:33:25.305Z,3.88
2023-04-20T04:35:53.349Z,4.53
2023-04-20T04:38:19.568Z,4.82
2023-04-20T04:40:45.880Z,4.57
2023-04-20T04:43:12.154Z,4.63
2023-04-20T04:45:39.683Z,4.80
2023-04-20T04:48:08.106Z,4.75
2023-04-20T04:50:35.954Z,4.82
2023-04-20T04:53:02.163Z,4.50
2023-04-20T04:55:28.357Z,4.55
2023-04-20T04:57:54.702Z,5.63
2023-04-20T05:00:21.008Z,5.28
2023-04-20T05:02:47.420Z,4.78
2023-04-20T05:05:13.766Z,4.57
2023-04-20T05:07:40.277Z,5.35
2023-04-20T05:10:07.201Z,5.57
2023-04-20T05:12:33.760Z,5.22
2023-04-20T05:15:00.274Z,5.22
2023-04-20T05:17:26.654Z,5.03
2023-04-20T05:19:52.920Z,6.45
2023-04-20T05:22:19.157Z,5.55
2023-04-20T05:24:45.341Z,6.32
2023-04-20T05:27:11.533Z,5.50
2023-04-20T05:29:38.209Z,5.88
2023-04-20T05:32:05.008Z,5.60
2023-04-20T05:34:31.323Z,4.93
2023-04-20T05:36:58.365Z,5.43
2023-04-20T05:39:24.608Z,5.65
2023-04-20T05:41:50.977Z,6.05
2023-04-20T05:44:17.167Z,5.93
2023-04-20T05:46:43.352Z,5.35
2023-04-20T05:49:09.735Z,5.57
2023-04-20T05:51:35.942Z,9.80
2023-04-20T05:54:02.590Z,5.97
2023-04-20T05:56:28.913Z,6.20
2023-04-20T05:58:55.726Z,5.95
2023-04-20T06:01:21.965Z,5.82
2023-04-20T06:03:49.261Z,5.35
2023-04-20T06:06:16.809Z,5.68
2023-04-20T06:08:43.118Z,5.63
2023-04-20T06:11:09.422Z,6.30
2023-04-20T06:13:35.625Z,5.45
2023-04-20T06:16:01.981Z,6.15
2023-04-20T06:18:28.382Z,5.70
2023-04-20T06:20:54.719Z,5.72
2023-04-20T06:23:20.977Z,6.03
2023-04-20T06:25:47.330Z,6.60
2023-04-20T06:28:13.513Z,6.18
2023-04-20T06:30:39.704Z,6.50
2023-04-20T06:33:06.017Z,6.70
2023-04-20T06:35:32.242Z,7.10
2023-04-20T06:37:58.918Z,6.85
2023-04-20T06:40:28.483Z,6.65
2023-04-20T06:42:54.788Z,7.75
2023-04-20T06:45:21.066Z,7.07
2023-04-20T06:47:47.338Z,6.30
2023-04-20T06:50:13.601Z,6.25
2023-04-20T06:52:40.659Z,7.20
2023-04-20T06:55:07.421Z,7.68
2023-04-20T06:57:33.869Z,7.25
2023-04-20T07:00:00.171Z,7.43
2023-04-20T07:02:27.279Z,7.20
2023-04-20T07:04:53.745Z,7.13
2023-04-20T07:07:20.217Z,7.75
2023-04-20T07:09:46.484Z,7.32
2023-04-20T07:12:15.629Z,6.95
2023-04-20T07:14:41.825Z,7.28
2023-04-20T07:17:08.020Z,7.45
2023-04-20T07:19:34.850Z,7.70
2023-04-20T07:22:01.056Z,7.32
2023-04-20T07:24:28.871Z,7.00
2023-04-20T07:26:55.577Z,7.78
2023-04-20T07:29:21.984Z,7.30
2023-04-20T07:31:48.499Z,7.38
2023-04-20T07:34:14.770Z,7.80
2023-04-20T07:36:41.119Z,7.65
2023-04-20T07:39:07.315Z,7.63
2023-04-20T07:41:33.622Z,6.82
2023-04-20T07:44:00.169Z,7.05
2023-04-20T07:46:28.279Z,7.28
2023-04-20T07:48:54.531Z,6.97
2023-04-20T07:51:20.746Z,7.00
2023-04-20T07:53:47.116Z,6.28
2023-04-20T07:56:13.379Z,6.50
2023-04-20T07:58:40.657Z,6.05
2023-04-20T08:01:07.107Z,6.25
2023-04-20T08:03:36.872Z,6.00
2023-04-20T08:06:03.542Z,6.40
2023-04-20T08:08:30.147Z,5.20
2023-04-20T08:10:57.543Z,5.22
2023-04-20T08:13:23.753Z,5.28
2023-04-20T08:15:50.056Z,5.00
2023-04-20T08:18:16.263Z,5.07
2023-04-20T08:20:42.636Z,4.43
2023-04-20T08:23:08.834Z,4.50
2023-04-20T08:25:35.235Z,4.35
2023-04-20T08:28:01.751Z,4.75
2023-04-20T08:30:28.882Z,4.43
2023-04-20T08:32:55.104Z,4.60
2023-04-20T08:35:21.328Z,4.22
2023-04-20T08:37:47.570Z,4.35
2023-04-20T08:40:13.819Z,4.10
2023-04-20T08:42:40.037Z,4.95
2023-04-20T08:45:06.437Z,4.20
2023-04-20T08:47:32.979Z,4.43
2023-04-20T08:49:59.910Z,5.72
2023-04-20T08:52:26.154Z,5.38
2023-04-20T08:54:56.878Z,4.03
2023-04-20T08:59:50.130Z,4.13
2023-04-20T09:02:16.446Z,4.80
2023-04-20T09:04:42.881Z,3.92
2023-04-20T09:07:18.902Z,3.72
2023-04-20T09:09:57.546Z,4.10
2023-04-20T09:12:24.684Z,5.07
2023-04-20T09:14:51.036Z,4.25
2023-04-20T09:17:18.099Z,4.50
2023-04-20T09:19:45.727Z,4.63
2023-04-20T09:22:12.252Z,4.85
2023-04-20T09:24:39.287Z,5.00
2023-04-20T09:27:15.629Z,4.32
2023-04-20T09:29:42.117Z,3.58
2023-04-20T09:32:08.441Z,3.88
2023-04-20T09:34:46.651Z,4.40
2023-04-20T09:37:15.148Z,4.75
2023-04-20T09:39:42.780Z,4.60
2023-04-20T09:42:11.419Z,4.50
2023-04-20T09:44:41.050Z,4.57
2023-04-20T09:47:08.453Z,4.03
2023-04-20T09:49:35.057Z,4.78
2023-04-20T09:52:02.125Z,3.70
2023-04-20T09:54:28.390Z,3.80
2023-04-20T09:56:54.641Z,4.22
2023-04-20T09:59:21.354Z,3.80
2023-04-20T10:01:47.767Z,2.70
2023-04-20T10:04:14.835Z,2.55
2023-04-20T10:06:51.959Z,2.05
2023-04-20T10:09:26.062Z,2.40
2023-04-20T10:11:54.531Z,1.45
2023-04-20T10:14:25.408Z,1.20
2023-04-20T10:17:01.848Z,1.10
2023-04-20T10:19:38.672Z,1.20
2023-04-20T10:22:05.527Z,1.40
2023-04-20T10:24:31.884Z,1.48
2023-04-20T10:26:58.522Z,1.67
2023-04-20T10:29:25.611Z,1.40
2023-04-20T10:31:51.869Z,1.40
2023-04-20T10:34:28.878Z,1.40
2023-04-20T10:36:55.150Z,1.48
2023-04-20T10:39:22.910Z,1.90
2023-04-20T10:41:53.544Z,1.58
2023-04-20T10:44:20.139Z,1.58
2023-04-20T10:46:50.483Z,1.83
2023-04-20T10:49:17.578Z,1.73
2023-04-20T10:51:48.247Z,1.40
2023-04-20T10:54:15.413Z,1.80
2023-04-20T10:56:47.061Z,1.75
2023-04-20T10:59:14.421Z,1.55
2023-04-20T11:01:41.237Z,1.83
2023-04-20T11:04:07.928Z,1.90
2023-04-20T11:06:34.619Z,2.38
2023-04-20T11:09:00.869Z,1.65
2023-04-20T11:11:28.121Z,1.70
2023-04-20T11:14:10.336Z,1.48
2023-04-20T11:16:47.994Z,1.45
2023-04-20T11:19:22.101Z,1.10
2023-04-20T11:21:48.285Z,1.10
2023-04-20T11:24:21.312Z,1.45
2023-04-20T11:26:51.067Z,1.10
2023-04-20T11:29:33.134Z,1.25
2023-04-20T11:32:00.693Z,1.48
2023-04-20T11:34:27.278Z,1.98
2023-04-20T11:36:56.488Z,1.77
2023-04-20T11:39:29.656Z,2.13
2023-04-20T11:41:57.133Z,2.50
2023-04-20T11:44:27.201Z,3.22
2023-04-20T11:46:54.825Z,2.25
2023-04-20T11:49:21.385Z,2.10
2023-04-20T11:51:47.933Z,1.73
2023-04-20T11:54:14.387Z,1.48
2023-04-20T11:56:42.446Z,2.35
2023-04-20T11:59:08.987Z,1.63
2023-04-20T12:01:35.808Z,1.88
2023-04-20T12:04:02.532Z,2.50
2023-04-20T12:06:29.015Z,2.45
2023-04-20T12:08:55.734Z,2.70
2023-04-20T12:11:22.209Z,2.40
2023-04-20T12:13:48.577Z,2.70
2023-04-20T12:16:14.824Z,3.33
2023-04-20T12:18:41.421Z,4.22
2023-04-20T12:21:07.725Z,4.00
2023-04-20T12:23:34.769Z,4.13
2023-04-20T12:26:00.956Z,3.97
2023-04-20T12:28:27.145Z,3.60
2023-04-20T12:30:53.364Z,3.90
2023-04-20T12:33:19.596Z,3.33
2023-04-20T12:35:46.038Z,3.67
2023-04-20T12:38:14.462Z,3.45
2023-04-20T12:40:41.094Z,3.33
2023-04-20T12:43:07.366Z,3.28
2023-04-20T12:45:34.361Z,3.22
2023-04-20T12:48:00.918Z,3.55
2023-04-20T12:50:27.274Z,3.67
2023-04-20T12:52:56.039Z,4.10
2023-04-20T12:55:23.039Z,3.78
2023-04-20T12:57:49.214Z,3.60
2023-04-20T13:00:16.172Z,4.10
2023-04-20T13:02:42.556Z,4.32
2023-04-20T13:05:09.056Z,4.97
2023-04-20T13:07:35.334Z,4.32
2023-04-20T13:10:01.583Z,4.43
2023-04-20T13:12:27.837Z,4.72
2023-04-20T13:14:54.113Z,4.68
2023-04-20T13:17:20.310Z,4.15
2023-04-20T13:19:47.456Z,4.78
2023-04-20T13:22:16.734Z,4.45
2023-04-20T13:24:44.496Z,5.07
2023-04-20T13:27:10.843Z,5.50
2023-04-20T13:29:37.335Z,5.43
2023-04-20T13:32:03.624Z,5.82
2023-04-20T13:34:29.871Z,4.88
2023-04-20T13:36:56.540Z,4.75
2023-04-20T13:39:22.970Z,4.45
2023-04-20T13:41:51.910Z,4.80
2023-04-20T13:44:18.345Z,4.43
2023-04-20T13:46:45.959Z,4.45
2023-04-20T13:49:13.475Z,4.70
2023-04-20T13:51:40.251Z,4.38
2023-04-20T13:54:06.476Z,4.13
2023-04-20T13:56:33.484Z,4.13
2023-04-20T13:58:59.771Z,3.85
2023-04-20T14:01:26.119Z,4.53
2023-04-20T14:03:53.187Z,4.20
2023-04-20T14:06:19.850Z,4.40
2023-04-20T14:08:46.076Z,4.30
2023-04-20T14:11:12.377Z,4.47
2023-04-20T14:13:38.880Z,3.88
2023-04-20T14:16:09.612Z,4.32
2023-04-20T14:18:36.174Z,4.30
2023-04-20T14:21:02.401Z,4.05
2023-04-20T14:23:28.791Z,4.47
2023-04-20T14:25:55.558Z,4.03
2023-04-20T14:28:21.987Z,4.82
2023-04-20T14:30:48.187Z,4.88
2023-04-20T14:33:14.365Z,4.70
2023-04-20T14:35:40.710Z,4.53
2023-04-20T14:38:06.926Z,4.68
2023-04-20T14:40:33.139Z,4.55
2023-04-20T14:42:59.647Z,4.75
2023-04-20T14:45:25.888Z,4.47
2023-04-20T14:47:55.546Z,4.72
2023-04-20T14:50:22.013Z,4.65
2023-04-20T14:52:48.705Z,4.85
2023-04-20T14:55:15.041Z,4.85
2023-04-20T14:57:41.228Z,4.50
2023-04-20T15:00:07.805Z,5.00
2023-04-20T15:02:34.368Z,4.70
2023-04-20T15:05:01.114Z,4.97
2023-04-20T15:07:28.409Z,4.80
2023-04-20T15:09:54.635Z,4.78
2023-04-20T15:12:21.089Z,5.03
2023-04-20T15:14:47.396Z,4.57
2023-04-20T15:17:14.172Z,4.57
2023-04-20T15:19:45.767Z,5.50
2023-04-20T15:22:13.529Z,5.13
2023-04-20T15:24:39.938Z,4.95
2023-04-20T15:27:07.082Z,4.72
2023-04-20T15:29:33.680Z,4.65
2023-04-20T15:32:00.600Z,4.47
2023-04-20T15:34:27.793Z,4.32
2023-04-20T15:36:53.992Z,4.38
2023-04-20T15:39:20.826Z,4.75
2023-04-20T15:41:47.019Z,4.63
2023-04-20T15:44:13.226Z,4.47
2023-04-20T15:46:39.461Z,4.45
2023-04-20T15:49:05.830Z,5.30
2023-04-20T15:51:32.175Z,5.03
2023-04-20T15:53:58.450Z,5.07
2023-04-20T15:56:25.000Z,5.00
2023-04-20T15:58:51.643Z,4.75
2023-04-20T16:01:18.581Z,4.75
2023-04-20T16:03:46.144Z,4.80
2023-04-20T16:06:12.657Z,5.05
2023-04-20T16:08:38.908Z,4.50
2023-04-20T16:11:06.008Z,4.60
2023-04-20T16:13:32.620Z,4.18
2023-04-20T16:15:59.116Z,4.40
2023-04-20T16:18:25.516Z,4.10
2023-04-20T16:20:51.802Z,4.65
2023-04-20T16:23:17.979Z,4.20
2023-04-20T16:25:44.252Z,4.35
2023-04-20T16:28:10.704Z,4.55
2023-04-20T16:30:36.972Z,4.82
2023-04-20T16:33:03.345Z,4.40
2023-04-20T16:35:29.575Z,4.05
2023-04-20T16:37:56.235Z,4.68
2023-04-20T16:40:22.502Z,4.13
2023-04-20T16:42:48.720Z,4.20
2023-04-20T16:45:14.981Z,3.80
2023-04-20T16:47:41.222Z,4.30
2023-04-20T16:50:07.734Z,3.97
2023-04-20T16:52:34.608Z,4.18
2023-04-20T16:55:00.933Z,3.83
2023-04-20T16:57:27.228Z,3.90
2023-04-20T16:59:53.448Z,4.60
2023-04-20T17:02:19.739Z,5.10
2023-04-20T17:04:45.969Z,4.43
2023-04-20T17:07:13.303Z,4.72
2023-04-20T17:09:39.706Z,4.05
2023-04-20T17:12:05.943Z,4.07
2023-04-20T17:14:34.400Z,4.97
2023-04-20T17:17:00.898Z,4.70
2023-04-20T17:19:27.121Z,5.13
2023-04-20T17:21:53.379Z,5.25
2023-04-20T17:24:19.685Z,5.00
2023-04-20T17:26:46.380Z,5.30
2023-04-20T17:29:13.427Z,5.55
2023-04-20T17:31:39.652Z,5.68
2023-04-20T17:34:06.966Z,6.60
2023-04-20T17:36:34.189Z,5.10
2023-04-20T17:39:00.891Z,5.85
2023-04-20T17:41:27.118Z,5.30
2023-04-20T17:43:53.308Z,6.50
2023-04-20T17:46:19.550Z,6.10
2023-04-20T17:48:45.853Z,6.43
2023-04-20T17:51:15.190Z,5.63
2023-04-20T17:53:41.384Z,5.40
2023-04-20T17:56:07.644Z,6.10
2023-04-20T17:58:33.833Z,5.50
2023-04-20T18:01:00.120Z,6.22
2023-04-20T18:03:26.686Z,6.05
2023-04-20T18:05:54.193Z,5.53
2023-04-20T18:08:23.034Z,5.43
2023-04-20T18:10:50.114Z,6.10
2023-04-20T18:13:16.372Z,5.60
2023-04-20T18:15:42.727Z,5.63
2023-04-20T18:18:08.981Z,5.50
2023-04-20T18:20:35.225Z,6.03
2023-04-20T18:23:01.767Z,5.90
2023-04-20T18:25:28.023Z,6.78
2023-04-20T18:27:54.337Z,6.25
2023-04-20T18:30:20.607Z,6.63
2023-04-20T18:32:46.907Z,6.43
2023-04-20T18:35:13.158Z,6.70
2023-04-20T18:37:39.428Z,6.78
2023-04-20T18:40:07.054Z,6.78
2023-04-20T18:42:33.273Z,6.72
2023-04-20T18:44:59.509Z,7.25
2023-04-20T18:47:26.964Z,7.07
2023-04-20T18:49:53.438Z,7.25
2023-04-20T18:52:19.819Z,7.40
2023-04-20T18:54:46.734Z,7.97
2023-04-20T18:57:12.988Z,7.25
2023-04-20T18:59:39.208Z,7.07
2023-04-20T19:02:05.562Z,7.38
2023-04-20T19:04:35.172Z,8.73
2023-04-20T19:07:01.466Z,7.40
2023-04-20T19:09:27.661Z,7.70
2023-04-20T19:11:53.856Z,7.68
2023-04-20T19:14:20.360Z,8.27
2023-04-20T19:16:47.001Z,7.68
2023-04-20T19:19:13.252Z,7.65
2023-04-20T19:21:39.445Z,8.00
2023-04-20T19:24:05.739Z,7.55
2023-04-20T19:26:31.948Z,7.47
2023-04-20T19:28:59.231Z,7.07
2023-04-20T19:31:26.375Z,7.40
2023-04-20T19:33:53.279Z,7.57
2023-04-20T19:36:20.637Z,7.90
2023-04-20T19:38:46.945Z,7.35
2023-04-20T19:41:13.196Z,7.22
2023-04-20T19:43:39.388Z,6.75
2023-04-20T19:46:09.415Z,7.97
2023-04-20T19:48:36.313Z,7.13
2023-04-20T19:51:03.817Z,7.93
2023-04-20T19:53:30.150Z,8.25
2023-04-20T19:55:56.504Z,7.38
2023-04-20T19:58:23.055Z,7.75
2023-04-20T20:00:49.467Z,7.53
2023-04-20T20:03:16.161Z,8.38
2023-04-20T20:05:43.203Z,8.38
2023-04-20T20:08:09.484Z,8.63
2023-04-20T20:10:35.685Z,7.78
2023-04-20T20:13:01.868Z,8.25
2023-04-20T20:15:28.151Z,8.18
2023-04-20T20:17:58.523Z,8.65
2023-04-20T20:20:32.183Z,9.20
2023-04-20T20:22:59.247Z,8.13
2023-04-20T20:25:25.849Z,8.77
2023-04-20T20:27:52.124Z,9.00
2023-04-20T20:30:18.445Z,8.07
2023-04-20T20:32:44.799Z,8.30
2023-04-20T20:35:12.805Z,8.60
2023-04-20T20:37:40.073Z,7.85
2023-04-20T20:40:07.095Z,9.13
2023-04-20T20:42:33.621Z,9.15
2023-04-20T20:45:00.629Z,8.70
2023-04-20T20:47:26.893Z,8.55
2023-04-20T20:49:53.135Z,10.05
2023-04-20T20:52:19.330Z,9.30
2023-04-20T20:54:45.929Z,9.20
2023-04-20T20:57:12.209Z,10.02
2023-04-20T20:59:38.431Z,9.95
2023-04-20T21:02:04.711Z,10.32
2023-04-20T21:04:31.216Z,9.90
2023-04-20T21:06:57.456Z,9.40
2023-04-20T21:09:23.694Z,10.23
2023-04-20T21:11:49.891Z,9.35
2023-04-20T21:14:16.092Z,11.02
2023-04-20T21:16:42.368Z,10.55
2023-04-20T21:19:10.444Z,10.48
2023-04-20T21:21:36.696Z,11.32
2023-04-20T21:24:02.966Z,10.63
2023-04-20T21:26:34.736Z,11.65
2023-04-20T21:29:01.347Z,10.98
2023-04-20T21:31:27.746Z,11.18
2023-04-20T21:33:53.966Z,10.70
2023-04-20T21:36:20.360Z,11.13
2023-04-20T21:38:46.644Z,11.50
2023-04-20T21:41:12.976Z,10.68
2023-04-20T21:43:39.261Z,11.63
2023-04-20T21:46:05.553Z,11.48
2023-04-20T21:48:31.838Z,10.98
2023-04-20T21:50:58.093Z,11.95
2023-04-20T21:53:24.292Z,15.27
2023-04-20T21:55:50.711Z,12.63
2023-04-20T21:58:16.959Z,12.13
2023-04-20T22:00:43.242Z,12.82
2023-04-20T22:03:09.590Z,12.32
2023-04-20T22:05:36.321Z,12.95
2023-04-20T22:08:02.536Z,12.35
2023-04-20T22:10:28.872Z,12.95
2023-04-20T22:12:55.235Z,15.73
2023-04-20T22:15:23.218Z,13.43
2023-04-20T22:17:49.448Z,13.77
2023-04-20T22:20:16.808Z,51.78
2023-04-20T22:22:43.039Z,14.32
2023-04-20T22:25:09.557Z,12.40
2023-04-20T22:27:36.723Z,12.80
2023-04-20T22:30:03.643Z,12.98
2023-04-20T22:32:29.909Z,12.77
2023-04-20T22:34:56.098Z,12.98
2023-04-20T22:37:22.290Z,13.25
2023-04-20T22:39:48.504Z,13.13
2023-04-20T22:42:14.729Z,13.27
2023-04-20T22:44:40.944Z,13.68
2023-04-20T22:47:07.336Z,13.32
2023-04-20T22:49:34.510Z,13.18
2023-04-20T22:52:00.905Z,14.15
2023-04-20T22:54:27.178Z,13.90
2023-04-20T22:56:53.494Z,14.82
2023-04-20T22:59:19.887Z,13.57
2023-04-20T23:01:46.413Z,15.05
2023-04-20T23:04:12.825Z,14.00
2023-04-20T23:06:39.176Z,13.52
2023-04-20T23:09:08.414Z,13.82
2023-04-20T23:11:38.587Z,15.73
2023-04-20T23:14:08.441Z,13.50
2023-04-20T23:16:35.136Z,13.55
2023-04-20T23:19:01.573Z,13.13
2023-04-20T23:21:28.415Z,13.65
2023-04-20T23:23:56.567Z,13.80
2023-04-20T23:26:23.606Z,13.32
2023-04-20T23:28:50.823Z,13.68
2023-04-20T23:31:17.119Z,14.05
2023-04-20T23:33:43.391Z,14.55
2023-04-20T23:36:09.592Z,16.00
2023-04-20T23:38:35.887Z,14.55
2023-04-20T23:41:07.263Z,13.27
2023-04-20T23:43:33.824Z,15.68
2023-04-20T23:46:00.472Z,15.40
2023-04-20T23:48:26.718Z,15.38
2023-04-20T23:50:53.004Z,14.32
2023-04-20T23:53:19.211Z,15.85
2023-04-20T23:55:48.085Z,15.68
2023-04-20T23:58:14.290Z,16.20
